createdAt,value
2023-03-10T00:00:28.298Z,98056.56
2023-03-10T00:03:30.488Z,98059.41
2023-03-10T00:06:35.032Z,98057.75
2023-03-10T00:09:37.263Z,98051.72
2023-03-10T00:12:39.839Z,98044.16
2023-03-10T00:15:42.117Z,98028.38
2023-03-10T00:18:45.354Z,98019.94
2023-03-10T00:21:47.523Z,98033.34
2023-03-10T00:24:49.643Z,98023.22
2023-03-10T00:27:52.612Z,98017.53
2023-03-10T00:31:03.777Z,98029.91
2023-03-10T00:34:06.581Z,98039.59
2023-03-10T00:37:09.411Z,98031.34
2023-03-10T00:40:15.285Z,98034.56
2023-03-10T00:43:17.461Z,98032.75
2023-03-10T00:46:20.317Z,98027.28
2023-03-10T00:49:22.567Z,98029.09
2023-03-10T00:52:24.894Z,98031.22
2023-03-10T00:55:27.039Z,98030.84
2023-03-10T00:58:30.283Z,98020.28
2023-03-10T01:01:33.885Z,98020.66
2023-03-10T01:04:36.217Z,98007.34
2023-03-10T01:07:38.401Z,98007.78
2023-03-10T01:10:40.636Z,98003.94
2023-03-10T01:13:43.483Z,97997.69
2023-03-10T01:16:45.687Z,97985.72
2023-03-10T01:19:47.859Z,97986.94
2023-03-10T01:22:50.057Z,97994.41
2023-03-10T01:25:52.557Z,97987.56
2023-03-10T01:28:54.695Z,97992.62
2023-03-10T01:31:56.853Z,97987.97
2023-03-10T01:34:59.210Z,97982.28
2023-03-10T01:38:01.460Z,97983.91
2023-03-10T01:41:04.126Z,97985.12
2023-03-10T01:44:20.143Z,97982.06
2023-03-10T01:47:22.307Z,97977.22
2023-03-10T01:50:24.890Z,97965.09
2023-03-10T01:53:27.798Z,97965.87
2023-03-10T01:56:30.309Z,97952.91
2023-03-10T01:59:33.128Z,97953.94
2023-03-10T02:02:35.822Z,97948.66
2023-03-10T02:05:40.661Z,97943.13
2023-03-10T02:08:46.202Z,97937.41
2023-03-10T02:11:49.591Z,97933.97
2023-03-10T02:14:52.718Z,97934.59
2023-03-10T02:17:55.054Z,97923.50
2023-03-10T02:21:00.006Z,97922.50
2023-03-10T02:24:14.402Z,97923.34
2023-03-10T02:27:37.072Z,97913.84
2023-03-10T02:30:42.952Z,97911.59
2023-03-10T02:33:46.404Z,97903.09
2023-03-10T02:36:48.569Z,97908.38
2023-03-10T02:39:51.055Z,97903.31
2023-03-10T02:42:53.207Z,97905.72
2023-03-10T02:45:59.208Z,97900.66
2023-03-10T02:49:03.309Z,97900.25
2023-03-10T02:52:09.400Z,97897.81
2023-03-10T02:55:18.933Z,97895.97
2023-03-10T02:58:22.418Z,97889.66
2023-03-10T03:01:26.397Z,97883.03
2023-03-10T03:04:29.002Z,97882.00
2023-03-10T03:07:31.204Z,97871.22
2023-03-10T03:10:33.860Z,97870.22
2023-03-10T03:13:36.041Z,97864.94
2023-03-10T03:16:38.260Z,97859.66
2023-03-10T03:19:40.654Z,97868.22
2023-03-10T03:22:44.385Z,97865.56
2023-03-10T03:25:46.628Z,97866.56
2023-03-10T03:28:49.357Z,97858.84
2023-03-10T03:31:52.150Z,97856.09
2023-03-10T03:34:54.382Z,97844.75
2023-03-10T03:37:57.151Z,97833.66
2023-03-10T03:40:59.338Z,97832.56
2023-03-10T03:44:01.562Z,97827.53
2023-03-10T03:47:04.191Z,97820.41
2023-03-10T03:50:08.464Z,97817.91
2023-03-10T03:53:10.882Z,97811.16
2023-03-10T03:56:13.044Z,97807.88
2023-03-10T03:59:15.225Z,97798.50
2023-03-10T04:02:17.460Z,97794.25
2023-03-10T04:05:20.016Z,97788.72
2023-03-10T04:08:22.173Z,97787.69
2023-03-10T04:11:24.350Z,97783.53
2023-03-10T04:14:26.583Z,97783.50
2023-03-10T04:17:28.768Z,97773.66
2023-03-10T04:20:31.040Z,97759.63
2023-03-10T04:23:33.564Z,97769.41
2023-03-10T04:26:35.839Z,97765.59
2023-03-10T04:29:38.075Z,97755.25
2023-03-10T04:32:40.394Z,97749.69
2023-03-10T04:35:44.074Z,97746.00
2023-03-10T04:38:46.534Z,97745.63
2023-03-10T04:41:48.772Z,97742.16
2023-03-10T04:44:52.097Z,97740.78
2023-03-10T04:47:54.352Z,97739.47
2023-03-10T04:50:57.128Z,97742.69
2023-03-10T04:54:00.362Z,97731.28
2023-03-10T04:57:02.707Z,97732.53
2023-03-10T05:00:08.049Z,97727.28
2023-03-10T05:03:10.362Z,97724.16
2023-03-10T05:06:15.519Z,97727.06
2023-03-10T05:09:18.782Z,97725.75
2023-03-10T05:12:21.119Z,97724.88
2023-03-10T05:15:23.782Z,97724.66
2023-03-10T05:18:25.964Z,97724.78
2023-03-10T05:21:28.420Z,97727.50
2023-03-10T05:24:30.741Z,97725.62
2023-03-10T05:27:34.524Z,97711.44
2023-03-10T05:30:36.694Z,97712.97
2023-03-10T05:33:39.104Z,97708.59
2023-03-10T05:36:42.403Z,97714.97
2023-03-10T05:39:44.619Z,97712.91
2023-03-10T05:42:47.699Z,97708.94
2023-03-10T05:45:59.861Z,97703.88
2023-03-10T05:49:02.090Z,97698.78
2023-03-10T05:52:04.476Z,97693.38
2023-03-10T05:55:08.049Z,97700.63
2023-03-10T05:58:10.241Z,97692.28
2023-03-10T06:01:13.147Z,97692.97
2023-03-10T06:04:15.446Z,97686.50
2023-03-10T06:07:17.709Z,97682.59
2023-03-10T06:10:20.008Z,97686.72
2023-03-10T06:13:22.349Z,97697.31
2023-03-10T06:16:24.654Z,97689.94
2023-03-10T06:19:27.478Z,97687.81
2023-03-10T06:22:31.286Z,97683.56
2023-03-10T06:25:33.661Z,97680.56
2023-03-10T06:28:37.667Z,97679.22
2023-03-10T06:31:39.881Z,97685.44
2023-03-10T06:34:42.097Z,97687.75
2023-03-10T06:37:44.284Z,97678.78
2023-03-10T06:40:46.616Z,97674.84
2023-03-10T06:43:48.859Z,97684.84
2023-03-10T06:46:51.042Z,97676.75
2023-03-10T06:49:54.813Z,97676.22
2023-03-10T06:52:57.105Z,97675.75
2023-03-10T06:56:08.251Z,97676.66
2023-03-10T06:59:10.540Z,97681.03
2023-03-10T07:02:13.296Z,97685.50
2023-03-10T07:05:15.566Z,97675.34
2023-03-10T07:08:17.769Z,97680.78
2023-03-10T07:11:20.516Z,97684.37
2023-03-10T07:14:23.090Z,97682.06
2023-03-10T07:17:25.618Z,97682.03
2023-03-10T07:20:27.795Z,97681.53
2023-03-10T07:23:29.967Z,97675.28
2023-03-10T07:26:32.192Z,97677.47
2023-03-10T07:29:34.627Z,97675.44
2023-03-10T07:32:36.907Z,97675.63
2023-03-10T07:35:39.184Z,97660.84
2023-03-10T07:38:41.730Z,97655.81
2023-03-10T07:41:44.101Z,97662.44
2023-03-10T07:44:46.345Z,97659.94
2023-03-10T07:47:49.776Z,97667.19
2023-03-10T07:50:58.640Z,97662.47
2023-03-10T07:54:00.952Z,97660.72
2023-03-10T07:57:03.183Z,97669.25
2023-03-10T08:00:06.780Z,97668.84
2023-03-10T08:03:08.990Z,97656.78
2023-03-10T08:06:22.793Z,97661.16
2023-03-10T08:09:25.032Z,97646.87
2023-03-10T08:12:27.263Z,97638.06
2023-03-10T08:15:30.043Z,97638.87
2023-03-10T08:18:33.032Z,97642.41
2023-03-10T08:21:35.186Z,97640.53
2023-03-10T08:24:38.099Z,97640.31
2023-03-10T08:27:41.628Z,97628.53
2023-03-10T08:31:02.663Z,97625.59
2023-03-10T08:34:05.973Z,97622.41
2023-03-10T08:37:08.273Z,97620.28
2023-03-10T08:40:12.841Z,97632.78
2023-03-10T08:43:15.015Z,97614.16
2023-03-10T08:46:18.455Z,97606.13
2023-03-10T08:49:22.004Z,97601.03
2023-03-10T08:52:24.640Z,97599.66
2023-03-10T08:55:26.821Z,97594.25
2023-03-10T08:58:29.225Z,97594.25
2023-03-10T09:01:34.295Z,97591.34
2023-03-10T09:04:36.552Z,97595.66
2023-03-10T09:07:38.737Z,97586.88
2023-03-10T09:10:42.475Z,97587.31
2023-03-10T09:13:44.680Z,97580.03
2023-03-10T09:16:47.075Z,97576.87
2023-03-10T09:19:49.461Z,97573.12
2023-03-10T09:22:55.907Z,97576.63
2023-03-10T09:25:58.150Z,97571.06
2023-03-10T09:29:00.716Z,97559.59
2023-03-10T09:32:05.022Z,97567.66
2023-03-10T09:35:08.245Z,97565.19
2023-03-10T09:38:10.591Z,97573.41
2023-03-10T09:41:36.957Z,97568.56
2023-03-10T09:44:46.117Z,97565.03
2023-03-10T09:48:15.825Z,97565.09
2023-03-10T09:51:23.669Z,97571.09
2023-03-10T09:54:42.363Z,97554.19
2023-03-10T09:57:47.301Z,97551.84
2023-03-10T10:00:49.511Z,97550.22
2023-03-10T10:03:58.513Z,97534.62
2023-03-10T10:07:02.202Z,97535.06
2023-03-10T10:10:09.615Z,97532.41
2023-03-10T10:13:14.621Z,97526.56
2023-03-10T10:16:32.049Z,97525.03
2023-03-10T10:19:37.509Z,97517.94
2023-03-10T10:22:39.760Z,97502.47
2023-03-10T10:25:42.631Z,97499.78
2023-03-10T10:28:55.193Z,97498.78
2023-03-10T10:32:05.410Z,97491.13
2023-03-10T10:35:15.242Z,97478.97
2023-03-10T10:38:43.442Z,97471.63
2023-03-10T10:41:45.612Z,97457.13
2023-03-10T10:44:47.817Z,97458.78
2023-03-10T10:47:51.672Z,97462.72
2023-03-10T10:50:54.331Z,97458.28
2023-03-10T10:53:58.024Z,97456.13
2023-03-10T10:57:01.300Z,97454.34
2023-03-10T11:00:26.665Z,97447.19
2023-03-10T11:03:32.979Z,97443.03
2023-03-10T11:06:38.018Z,97447.59
2023-03-10T11:09:40.289Z,97439.34
2023-03-10T11:13:19.770Z,97434.31
2023-03-10T11:16:41.458Z,97432.91
2023-03-10T11:20:06.930Z,97427.09
2023-03-10T11:23:17.414Z,97414.75
2023-03-10T11:26:39.230Z,97408.09
2023-03-10T11:30:00.712Z,97401.00
2023-03-10T11:33:22.052Z,97387.25
2023-03-10T11:36:30.011Z,97381.91
2023-03-10T11:40:15.721Z,97370.53
2023-03-10T11:43:17.926Z,97363.16
2023-03-10T11:46:26.365Z,97363.19
2023-03-10T11:49:35.876Z,97357.38
2023-03-10T11:52:38.244Z,97350.25
2023-03-10T11:55:41.199Z,97341.41
2023-03-10T11:59:08.357Z,97339.22
2023-03-10T12:02:27.037Z,97322.00
2023-03-10T12:05:39.073Z,97319.28
2023-03-10T12:08:41.829Z,97313.47
2023-03-10T12:11:44.489Z,97302.91
2023-03-10T12:14:47.323Z,97303.66
2023-03-10T12:17:51.041Z,97296.47
2023-03-10T12:21:14.815Z,97294.87
2023-03-10T12:24:46.186Z,97293.97
2023-03-10T12:28:06.872Z,97276.22
2023-03-10T12:31:15.376Z,97274.91
2023-03-10T12:34:22.782Z,97268.09
2023-03-10T12:37:25.036Z,97265.69
2023-03-10T12:40:49.495Z,97258.00
2023-03-10T12:44:04.013Z,97247.47
2023-03-10T12:47:09.271Z,97241.28
2023-03-10T12:50:29.361Z,97235.63
2023-03-10T12:53:37.300Z,97230.66
2023-03-10T12:56:42.772Z,97220.81
2023-03-10T13:00:01.732Z,97207.09
2023-03-10T13:03:09.979Z,97196.56
2023-03-10T13:06:14.990Z,97190.38
2023-03-10T13:09:28.622Z,97183.53
2023-03-10T13:12:46.437Z,97181.16
2023-03-10T13:16:00.244Z,97183.34
2023-03-10T13:19:03.862Z,97183.22
2023-03-10T13:22:06.052Z,97175.53
2023-03-10T13:25:14.245Z,97169.78
2023-03-10T13:28:16.413Z,97167.97
2023-03-10T13:31:26.068Z,97172.53
2023-03-10T13:34:30.310Z,97173.94
2023-03-10T13:37:32.514Z,97168.78
2023-03-10T13:40:34.943Z,97169.28
2023-03-10T13:43:42.249Z,97170.91
2023-03-10T13:46:51.007Z,97167.94
2023-03-10T13:50:01.258Z,97154.41
2023-03-10T13:53:04.583Z,97147.56
2023-03-10T13:56:32.764Z,97147.56
2023-03-10T13:59:35.483Z,97149.44
2023-03-10T14:02:39.477Z,97148.16
2023-03-10T14:05:45.745Z,97134.44
2023-03-10T14:08:48.247Z,97118.66
2023-03-10T14:11:51.347Z,97124.28
2023-03-10T14:14:53.524Z,97114.25
2023-03-10T14:18:07.882Z,97120.81
2023-03-10T14:21:33.396Z,97121.28
2023-03-10T14:24:35.594Z,97127.28
2023-03-10T14:27:41.682Z,97115.50
2023-03-10T14:30:44.569Z,97111.75
2023-03-10T14:33:47.356Z,97110.00
2023-03-10T14:36:49.594Z,97110.53
2023-03-10T14:39:51.808Z,97102.19
2023-03-10T14:42:54.871Z,97094.56
2023-03-10T14:46:00.188Z,97103.84
2023-03-10T14:49:05.130Z,97101.38
2023-03-10T14:52:17.612Z,97104.31
2023-03-10T14:55:19.917Z,97096.63
2023-03-10T14:58:24.184Z,97106.84
2023-03-10T15:01:26.454Z,97088.22
2023-03-10T15:04:28.720Z,97079.38
2023-03-10T15:07:30.948Z,97071.09
2023-03-10T15:10:37.047Z,97068.28
2023-03-10T15:13:39.538Z,97066.91
2023-03-10T15:16:41.902Z,97060.09
2023-03-10T15:19:44.332Z,97067.31
2023-03-10T15:22:47.432Z,97061.44
2023-03-10T15:25:49.865Z,97049.41
2023-03-10T15:28:52.617Z,97060.44
2023-03-10T15:31:59.610Z,97062.03
2023-03-10T15:35:02.131Z,97049.75
2023-03-10T15:38:05.022Z,97040.34
2023-03-10T15:41:07.843Z,97040.19
2023-03-10T15:44:10.169Z,97048.25
2023-03-10T15:47:12.383Z,97060.88
2023-03-10T15:50:16.549Z,97053.31
2023-03-10T15:53:18.827Z,97051.53
2023-03-10T15:56:21.968Z,97061.16
2023-03-10T15:59:24.373Z,97056.63
2023-03-10T16:02:26.635Z,97060.75
2023-03-10T16:05:28.857Z,97057.03
2023-03-10T16:08:37.083Z,97052.63
2023-03-10T16:11:39.341Z,97042.78
2023-03-10T16:14:41.520Z,97049.53
2023-03-10T16:17:43.718Z,97041.03
2023-03-10T16:20:45.904Z,97046.56
2023-03-10T16:23:48.318Z,97045.66
2023-03-10T16:26:50.485Z,97052.03
2023-03-10T16:29:52.858Z,97055.53
2023-03-10T16:33:00.747Z,97053.16
2023-03-10T16:36:06.304Z,97063.56
2023-03-10T16:39:10.071Z,97066.25
2023-03-10T16:42:12.263Z,97071.06
2023-03-10T16:45:14.586Z,97068.41
2023-03-10T16:48:20.226Z,97073.00
2023-03-10T16:51:51.941Z,97078.81
2023-03-10T16:54:58.017Z,97086.06
2023-03-10T16:58:00.306Z,97089.03
2023-03-10T17:01:02.673Z,97089.00
2023-03-10T17:04:04.995Z,97091.72
2023-03-10T17:07:07.401Z,97078.94
2023-03-10T17:10:10.845Z,97085.62
2023-03-10T17:13:13.110Z,97089.41
2023-03-10T17:16:16.713Z,97092.31
2023-03-10T17:19:21.125Z,97089.66
2023-03-10T17:22:23.362Z,97095.56
2023-03-10T17:25:25.696Z,97098.22
2023-03-10T17:28:27.980Z,97093.69
2023-03-10T17:31:30.617Z,97098.19
2023-03-10T17:34:33.293Z,97101.69
2023-03-10T17:37:35.601Z,97104.09
2023-03-10T17:40:41.663Z,97106.75
2023-03-10T17:43:44.414Z,97098.22
2023-03-10T17:46:47.398Z,97096.91
2023-03-10T17:49:49.705Z,97091.84
2023-03-10T17:52:52.302Z,97084.94
2023-03-10T17:55:55.545Z,97096.66
2023-03-10T17:58:59.522Z,97090.53
2023-03-10T18:02:03.661Z,97093.19
2023-03-10T18:05:06.654Z,97090.78
2023-03-10T18:08:09.628Z,97084.41
2023-03-10T18:11:12.151Z,97080.44
2023-03-10T18:14:14.352Z,97078.50
2023-03-10T18:17:16.726Z,97073.72
2023-03-10T18:20:19.349Z,97064.72
2023-03-10T18:23:23.322Z,97070.25
2023-03-10T18:26:29.557Z,97072.66
2023-03-10T18:29:31.819Z,97070.53
2023-03-10T18:32:34.840Z,97087.56
2023-03-10T18:35:37.992Z,97099.28
2023-03-10T18:38:41.726Z,97100.88
2023-03-10T18:41:44.077Z,97099.53
2023-03-10T18:44:47.395Z,97101.66
2023-03-10T18:47:49.816Z,97094.19
2023-03-10T18:50:53.082Z,97095.53
2023-03-10T18:53:55.852Z,97100.88
2023-03-10T18:57:01.746Z,97101.94
2023-03-10T19:00:07.486Z,97114.13
2023-03-10T19:03:10.648Z,97115.13
2023-03-10T19:06:13.250Z,97111.31
2023-03-10T19:09:18.174Z,97119.53
2023-03-10T19:12:20.727Z,97109.41
2023-03-10T19:15:23.291Z,97115.00
2023-03-10T19:18:25.876Z,97107.75
2023-03-10T19:21:28.645Z,97107.44
2023-03-10T19:24:31.207Z,97112.78
2023-03-10T19:27:34.317Z,97110.91
2023-03-10T19:30:36.853Z,97110.56
2023-03-10T19:33:39.920Z,97110.25
2023-03-10T19:36:42.467Z,97099.16
2023-03-10T19:39:44.685Z,97117.94
2023-03-10T19:42:47.568Z,97101.44
2023-03-10T19:45:50.030Z,97100.69
2023-03-10T19:48:52.493Z,97099.03
2023-03-10T19:51:54.949Z,97094.12
2023-03-10T19:54:57.475Z,97089.94
2023-03-10T19:57:59.978Z,97082.16
2023-03-10T20:01:03.065Z,97069.88
2023-03-10T20:04:05.733Z,97079.84
2023-03-10T20:07:10.072Z,97082.63
2023-03-10T20:10:14.046Z,97070.84
2023-03-10T20:13:16.244Z,97075.28
2023-03-10T20:16:20.304Z,97072.09
2023-03-10T20:19:22.890Z,97052.75
2023-03-10T20:22:25.429Z,97064.09
2023-03-10T20:25:28.127Z,97060.47
2023-03-10T20:28:30.505Z,97065.78
2023-03-10T20:31:35.891Z,97074.03
2023-03-10T20:34:41.199Z,97070.28
2023-03-10T20:37:43.859Z,97057.03
2023-03-10T20:40:47.125Z,97047.34
2023-03-10T20:43:49.941Z,97049.31
2023-03-10T20:46:52.809Z,97049.94
2023-03-10T20:49:56.635Z,97050.44
2023-03-10T20:52:59.584Z,97043.03
2023-03-10T20:56:02.032Z,97032.06
2023-03-10T20:59:06.418Z,97025.00
2023-03-10T21:02:14.073Z,97021.63
2023-03-10T21:05:16.569Z,97028.41
2023-03-10T21:08:19.476Z,97020.94
2023-03-10T21:11:22.041Z,97013.59
2023-03-10T21:14:24.248Z,97017.53
2023-03-10T21:17:27.834Z,97016.78
2023-03-10T21:20:30.327Z,97016.03
2023-03-10T21:23:34.425Z,97021.56
2023-03-10T21:26:36.991Z,97016.25
2023-03-10T21:29:40.406Z,97019.69
2023-03-10T21:32:42.778Z,97030.00
2023-03-10T21:35:45.245Z,97033.94
2023-03-10T21:38:49.941Z,97039.44
2023-03-10T21:41:52.180Z,97043.16
2023-03-10T21:44:55.901Z,97036.81
2023-03-10T21:47:58.097Z,97043.25
2023-03-10T21:51:00.487Z,97045.34
2023-03-10T21:54:03.178Z,97048.25
2023-03-10T21:57:05.412Z,97055.28
2023-03-10T22:00:12.613Z,97056.19
2023-03-10T22:03:15.275Z,97051.56
2023-03-10T22:06:17.504Z,97057.50
2023-03-10T22:09:19.776Z,97059.66
2023-03-10T22:12:22.044Z,97059.84
2023-03-10T22:15:26.814Z,97051.66
2023-03-10T22:18:29.318Z,97057.13
2023-03-10T22:21:31.504Z,97054.06
2023-03-10T22:24:33.766Z,97055.94
2023-03-10T22:27:35.966Z,97050.34
2023-03-10T22:30:38.802Z,97052.94
2023-03-10T22:33:41.039Z,97053.22
2023-03-10T22:36:43.293Z,97059.47
2023-03-10T22:39:46.542Z,97060.53
2023-03-10T22:42:49.120Z,97049.19
2023-03-10T22:45:51.468Z,97050.22
2023-03-10T22:48:54.055Z,97052.78
2023-03-10T22:51:56.756Z,97048.03
2023-03-10T22:55:00.028Z,97046.44
2023-03-10T22:58:06.865Z,97042.47
2023-03-10T23:01:09.071Z,97045.38
2023-03-10T23:04:11.253Z,97047.53
2023-03-10T23:07:13.452Z,97059.13
2023-03-10T23:10:18.726Z,97056.47
2023-03-10T23:13:21.016Z,97060.97
2023-03-10T23:16:23.850Z,97060.69
2023-03-10T23:19:26.204Z,97067.63
2023-03-10T23:22:28.414Z,97062.97
2023-03-10T23:25:32.852Z,97062.62
2023-03-10T23:28:35.821Z,97066.87
2023-03-10T23:31:38.303Z,97062.84
2023-03-10T23:34:40.564Z,97063.31
2023-03-10T23:37:42.809Z,97060.88
2023-03-10T23:40:45.080Z,97069.81
2023-03-10T23:43:47.236Z,97076.31
2023-03-10T23:46:53.534Z,97074.94
2023-03-10T23:49:56.289Z,97076.81
2023-03-10T23:52:58.693Z,97075.94
2023-03-10T23:56:00.854Z,97080.28
2023-03-10T23:59:03.496Z,97087.41
